createdAt,value
2022-08-22T00:02:53.999Z,62.0
2022-08-22T00:02:54.637Z,70.5
2022-08-22T00:03:15.577Z,79.2
2022-08-22T00:03:15.675Z,75.6
2022-08-22T00:03:15.861Z,77.0
2022-08-22T00:07:48.995Z,79.5
2022-08-22T00:12:49.004Z,79.6
2022-08-22T00:42:48.981Z,80.4
2022-08-22T00:47:49.003Z,80.6
2022-08-22T00:52:48.996Z,80.6
2022-08-22T00:57:49.019Z,80.5
2022-08-22T01:02:52.401Z,80.9
2022-08-22T01:07:49.005Z,81.0
2022-08-22T01:12:48.996Z,81.0
2022-08-22T01:17:48.992Z,81.3
2022-08-22T01:22:49.015Z,81.1
2022-08-22T01:27:48.990Z,81.4
2022-08-22T01:32:49.034Z,81.7
2022-08-22T01:37:49.000Z,81.9
2022-08-22T01:42:49.010Z,81.9
2022-08-22T01:47:48.990Z,82.3
2022-08-22T01:52:49.024Z,82.5
2022-08-22T01:57:48.992Z,82.6
2022-08-22T02:02:49.005Z,82.7
2022-08-22T02:07:49.049Z,82.9
2022-08-22T02:12:49.007Z,83.2
2022-08-22T02:17:49.008Z,83.3
2022-08-22T02:22:49.008Z,83.4
2022-08-22T02:27:49.007Z,83.9
2022-08-22T02:32:49.008Z,85.2
2022-08-22T02:37:49.023Z,86.2
2022-08-22T02:42:49.010Z,86.5
2022-08-22T02:47:49.050Z,86.8
2022-08-22T02:52:49.022Z,87.1
2022-08-22T02:57:49.024Z,87.1
2022-08-22T03:02:49.008Z,87.6
2022-08-22T03:07:49.029Z,87.6
2022-08-22T03:12:49.006Z,87.7
2022-08-22T03:17:49.017Z,87.7
2022-08-22T03:22:49.033Z,87.9
2022-08-22T03:27:50.092Z,88.2
2022-08-22T03:32:49.037Z,88.5
2022-08-22T03:37:49.034Z,88.7
2022-08-22T03:42:49.033Z,89.0
2022-08-22T03:47:49.018Z,89.2
2022-08-22T03:52:49.044Z,89.5
2022-08-22T03:57:49.036Z,89.9
2022-08-22T04:02:49.026Z,90.2
2022-08-22T04:07:49.048Z,90.3
2022-08-22T04:12:49.027Z,90.6
2022-08-22T04:17:49.052Z,90.7
2022-08-22T04:22:49.042Z,91.1
2022-08-22T04:27:49.049Z,91.1
2022-08-22T04:32:49.033Z,91.2
2022-08-22T04:37:49.055Z,91.2
2022-08-22T04:42:49.035Z,91.3
2022-08-22T04:47:53.881Z,91.0
2022-08-22T04:52:49.043Z,91.1
2022-08-22T04:57:49.068Z,91.0
2022-08-22T05:02:49.175Z,91.4
2022-08-22T05:07:49.060Z,91.6
2022-08-22T05:12:49.056Z,91.9
2022-08-22T05:17:49.049Z,91.9
2022-08-22T05:22:49.087Z,91.9
2022-08-22T05:27:49.049Z,91.7
2022-08-22T05:32:49.076Z,92.0
2022-08-22T05:37:49.065Z,91.9
2022-08-22T05:42:49.064Z,92.0
2022-08-22T05:47:49.056Z,91.8
2022-08-22T05:52:49.073Z,91.5
2022-08-22T05:57:49.067Z,91.8
2022-08-22T06:02:49.066Z,92.0
2022-08-22T06:07:49.077Z,92.8
2022-08-22T06:12:49.070Z,93.1
2022-08-22T06:17:49.094Z,92.7
2022-08-22T06:22:49.071Z,91.6
2022-08-22T06:27:49.092Z,89.1
2022-08-22T06:32:59.523Z,87.5
2022-08-22T06:37:49.085Z,86.2
2022-08-22T06:42:49.088Z,85.8
2022-08-22T06:47:50.173Z,85.4
2022-08-22T06:52:49.080Z,84.9
2022-08-22T06:57:49.116Z,84.7
2022-08-22T07:02:49.101Z,84.8
2022-08-22T07:07:49.100Z,84.4
2022-08-22T07:12:49.092Z,82.8
2022-08-22T07:17:49.108Z,80.3
2022-08-22T07:22:49.108Z,77.0
2022-08-22T07:27:49.124Z,74.5
2022-08-22T07:32:49.123Z,72.8
2022-08-22T07:37:49.105Z,72.7
2022-08-22T07:42:49.100Z,72.5
2022-08-22T07:47:49.842Z,72.7
2022-08-22T07:52:49.106Z,72.9
2022-08-22T07:57:49.121Z,73.1
2022-08-22T08:02:49.111Z,73.4
2022-08-22T08:07:49.123Z,73.5
2022-08-22T08:12:54.211Z,73.6
2022-08-22T08:17:49.125Z,73.7
2022-08-22T08:42:49.134Z,76.2
2022-08-22T08:47:49.146Z,77.4
2022-08-22T08:52:52.576Z,78.1
2022-08-22T08:57:49.142Z,78.8
2022-08-22T09:02:49.139Z,79.7
2022-08-22T09:07:49.149Z,79.5
2022-08-22T09:17:49.224Z,78.5
2022-08-22T09:22:50.581Z,78.6
2022-08-22T09:27:49.145Z,78.7
2022-08-22T09:32:49.142Z,78.0
2022-08-22T09:37:49.177Z,77.8
2022-08-22T09:42:49.138Z,77.1
2022-08-22T09:47:49.163Z,76.3
2022-08-22T09:52:49.168Z,74.9
2022-08-22T09:57:49.162Z,74.2
2022-08-22T10:02:53.713Z,73.9
2022-08-22T10:07:52.671Z,73.2
2022-08-22T10:12:49.179Z,72.6
2022-08-22T10:17:49.166Z,72.8
2022-08-22T10:22:49.182Z,73.2
2022-08-22T10:27:49.168Z,69.2
2022-08-22T10:32:49.177Z,62.2
2022-08-22T10:37:50.379Z,58.3
2022-08-22T10:42:49.174Z,56.3
2022-08-22T10:47:49.185Z,53.7
2022-08-22T10:52:49.186Z,53.5
2022-08-22T10:57:52.655Z,52.3
2022-08-22T11:02:49.185Z,51.6
2022-08-22T11:07:50.272Z,51.5
2022-08-22T11:12:49.182Z,49.3
2022-08-22T11:17:54.266Z,47.6
2022-08-22T11:22:49.201Z,48.3
2022-08-22T11:27:49.177Z,47.7
2022-08-22T11:32:49.205Z,47.6
2022-08-22T11:37:49.208Z,48.7
2022-08-22T11:42:49.217Z,49.6
2022-08-22T11:47:49.209Z,49.8
2022-08-22T11:52:51.566Z,49.1
2022-08-22T11:57:49.205Z,48.5
2022-08-22T12:02:49.211Z,47.9
2022-08-22T12:07:49.218Z,47.3
2022-08-22T12:12:49.207Z,46.0
2022-08-22T12:17:55.386Z,44.5
2022-08-22T12:22:49.885Z,45.2
2022-08-22T12:27:50.865Z,45.2
2022-08-22T12:32:49.308Z,44.1
2022-08-22T12:37:52.140Z,44.1
2022-08-22T12:42:49.222Z,43.6
2022-08-22T12:47:49.208Z,43.6
2022-08-22T12:52:49.229Z,42.9
2022-08-22T12:57:50.535Z,42.5
2022-08-22T13:02:49.231Z,42.3
2022-08-22T13:07:49.236Z,41.2
2022-08-22T13:12:49.233Z,41.0
2022-08-22T13:17:49.222Z,41.4
2022-08-22T13:22:49.227Z,41.4
2022-08-22T13:27:50.639Z,42.0
2022-08-22T13:32:49.226Z,42.1
2022-08-22T13:38:00.698Z,42.4
2022-08-22T13:42:49.225Z,41.7
2022-08-22T13:47:49.236Z,42.5
2022-08-22T13:52:52.546Z,43.0
2022-08-22T13:57:51.828Z,43.7
2022-08-22T14:02:49.209Z,43.6
2022-08-22T14:07:50.048Z,42.8
2022-08-22T14:12:50.652Z,41.6
2022-08-22T14:17:49.245Z,41.0
2022-08-22T14:22:52.909Z,41.9
2022-08-22T14:27:49.216Z,41.6
2022-08-22T14:37:49.240Z,42.0
2022-08-22T14:42:49.220Z,42.2
2022-08-22T14:47:55.610Z,42.5
2022-08-22T14:52:49.224Z,43.4
2022-08-22T14:57:49.232Z,43.7
2022-08-22T15:02:49.238Z,45.2
2022-08-22T15:07:49.234Z,46.3
2022-08-22T15:12:49.227Z,46.8
2022-08-22T15:17:50.987Z,47.0
2022-08-22T15:22:49.225Z,47.5
2022-08-22T15:27:49.239Z,47.6
2022-08-22T15:32:49.363Z,47.5
2022-08-22T15:37:49.240Z,47.3
2022-08-22T15:42:50.135Z,47.3
2022-08-22T15:47:49.233Z,47.3
2022-08-22T15:52:57.018Z,47.4
2022-08-22T15:57:49.222Z,47.5
2022-08-22T16:02:49.236Z,47.5
2022-08-22T16:07:49.233Z,47.7
2022-08-22T16:12:49.236Z,48.0
2022-08-22T16:17:49.471Z,47.8
2022-08-22T16:22:49.236Z,47.5
2022-08-22T16:27:49.237Z,47.3
2022-08-22T16:32:49.245Z,47.6
2022-08-22T16:37:49.243Z,47.9
2022-08-22T16:42:49.232Z,48.2
2022-08-22T16:48:02.147Z,48.1
2022-08-22T16:52:49.234Z,48.2
2022-08-22T16:58:05.395Z,48.3
2022-08-22T17:02:49.248Z,48.6
2022-08-22T17:07:49.228Z,48.8
2022-08-22T17:12:49.237Z,48.7
2022-08-22T17:17:49.243Z,48.8
2022-08-22T17:22:49.233Z,49.2
2022-08-22T17:27:49.244Z,49.6
2022-08-22T17:32:57.157Z,51.1
2022-08-22T17:37:49.250Z,53.9
2022-08-22T17:42:49.244Z,55.5
2022-08-22T17:47:49.252Z,57.1
2022-08-22T17:52:49.271Z,58.5
2022-08-22T17:57:49.245Z,59.4
2022-08-22T18:02:49.249Z,60.7
2022-08-22T18:07:49.241Z,61.2
2022-08-22T18:12:51.667Z,61.8
2022-08-22T18:17:49.230Z,62.5
2022-08-22T18:22:49.265Z,63.3
2022-08-22T18:27:49.238Z,64.0
2022-08-22T18:32:49.250Z,65.1
2022-08-22T18:37:49.238Z,65.8
2022-08-22T18:42:49.253Z,66.5
2022-08-22T18:47:49.238Z,67.4
2022-08-22T18:52:49.254Z,68.3
2022-08-22T18:57:49.238Z,69.0
2022-08-22T19:02:51.155Z,70.0
2022-08-22T19:07:49.251Z,70.4
2022-08-22T19:12:49.248Z,70.8
2022-08-22T19:17:59.062Z,71.2
2022-08-22T19:23:00.802Z,71.5
2022-08-22T19:27:49.258Z,72.0
2022-08-22T19:32:49.233Z,72.3
2022-08-22T19:37:49.258Z,72.4
2022-08-22T19:42:49.242Z,72.9
2022-08-22T19:47:49.244Z,73.4
2022-08-22T19:52:49.255Z,73.7
2022-08-22T19:57:49.251Z,74.4
2022-08-22T20:02:49.247Z,75.0
2022-08-22T20:07:49.238Z,75.3
2022-08-22T20:12:49.245Z,75.8
2022-08-22T20:18:12.041Z,76.0
2022-08-22T20:22:49.236Z,76.2
2022-08-22T20:27:49.252Z,76.5
2022-08-22T20:32:49.248Z,77.0
2022-08-22T20:38:06.265Z,77.4
2022-08-22T20:42:49.239Z,77.7
2022-08-22T20:47:49.565Z,77.8
2022-08-22T20:52:54.295Z,77.9
2022-08-22T20:57:49.256Z,78.0
2022-08-22T21:02:49.295Z,78.2
2022-08-22T21:07:49.255Z,78.6
2022-08-22T21:12:49.252Z,78.7
2022-08-22T21:17:49.261Z,78.8
2022-08-22T21:22:49.253Z,79.0
2022-08-22T21:27:49.259Z,79.5
2022-08-22T21:32:52.392Z,79.8
2022-08-22T21:37:49.250Z,79.7
2022-08-22T21:42:49.254Z,79.8
2022-08-22T21:47:49.262Z,79.8
2022-08-22T21:52:49.251Z,79.9
2022-08-22T21:57:49.260Z,79.7
2022-08-22T22:02:49.268Z,79.9
2022-08-22T22:07:49.264Z,80.1
2022-08-22T22:12:49.265Z,80.1
2022-08-22T22:17:49.262Z,79.9
2022-08-22T22:22:49.256Z,79.7
2022-08-22T22:27:49.267Z,79.7
2022-08-22T22:32:49.262Z,79.6
2022-08-22T22:37:49.262Z,79.2
2022-08-22T22:42:49.263Z,78.7
2022-08-22T22:47:49.298Z,78.3
2022-08-22T22:52:49.263Z,78.0
2022-08-22T22:57:49.273Z,77.8
2022-08-22T23:02:49.268Z,77.6
2022-08-22T23:07:49.271Z,78.0
2022-08-22T23:12:49.261Z,78.8
2022-08-22T23:17:49.264Z,79.4
2022-08-22T23:22:49.265Z,79.8
2022-08-22T23:27:52.242Z,81.0
2022-08-22T23:32:49.266Z,82.0
2022-08-22T23:37:49.269Z,83.1
2022-08-22T23:42:49.264Z,83.9
2022-08-22T23:47:49.267Z,84.8
2022-08-22T23:52:49.265Z,86.0
2022-08-22T23:57:49.267Z,87.1
